Espanola, NM

6:41 AM MDT on October 21, 2014 (GMT -0600)
Jaconita, NM, USA | Change Station
CLOSE
Current Station
Personal Weather Station
Location: Jaconita, NM
Elevation: 5709 ft
Nearby Weather Stations

Elev 5709 ft 35.89 °N, 106.06 °W | Updated 9 minutes ago

Mostly Cloudy
Mostly Cloudy
44.4 °F
Feels Like 44 °F
N
0.0
Wind Variable Wind from North
Gusts 0.0 mph

Today
High -- | Low -- °F
--% Chance of Precip.
Yesterday
High -- | Low -- °F
Precip. -- in
7:16 AM 6:21 PM
Waning Crescent, 6% visible
Pressure 30.24 in
Visibility 10.0 miles
Clouds Scattered Clouds 4600 ft
Overcast 5000 ft
Windchill 44 °F
Dew Point 44 °F
Humidity 98%
Rainfall 0.00 in
Snow Depth 1 in
UV 0 out of 12
Pollen 3.40 out of 12
Air Quality Not available.
Flu Activity Sporadic
METAR KLAM 211235Z AUTO 00000KT 10SM SCT046 OVC050 09/07 A3024 RMK AO2 T00920068

More Conditions Fewer Conditions

Pressure 30.24 in
Visibility 10.0 miles
Clouds Scattered Clouds 4600 ft
Overcast 5000 ft
Windchill 44 °F
Dew Point 44 °F
Humidity 98%
Rainfall 0.00 in
Snow Depth 1 in
UV 0 out of 12
Pollen 3.40 out of 12
Air Quality Not available.
Flu Activity Sporadic
METAR KLAM 211235Z AUTO 00000KT 10SM SCT046 OVC050 09/07 A3024 RMK AO2 T00920068

More Conditions Fewer Conditions

10-Day Weather Forecast

Almanac

Astronomy

Oct. 21, 2014 Rise Set
Actual Time 7:16 AM MDT 6:21 PM MDT
Civil Twilight 6:50 AM MDT 6:47 PM MDT
Nautical Twilight 6:20 AM MDT 7:16 PM MDT
Astronomical Twilight 5:51 AM MDT 7:46 PM MDT
Moon 5:07 AM MDT 5:13 PM MDT
Length of Visible Light 11h 56m
Length of Day
11h 04m
Tomorrow will be 2m 7s shorter.
Waning Crescent, 6% of the Moon is Illuminated
Today
Waning Crescent
Oct 23
New
Oct 30
First Quarter
Nov 6
Full
Nov 14
Last Quarter

Today's Extremes

State Highs State Lows

Community

WunderPhotos

Upload Photos

1,763,649 photos uploaded!

Nearby

Snow Depth

Station Depth Elevation
Quemazon 1 in 9500 ft
Santa Fe 0 in 11445 ft
Elk Cabin 0 in 8210 ft
Gallegos Peak 1 in 9800 ft
Wesner Springs 3 in 11120 ft

Earthquake Activity

City Distance Mag. Time & Date
Trinidad, Colorado 101 miles 2.7 10:33 PM MDT
2014-10-20
Trinidad, Colorado 112 miles 2.5 10:01 PM MDT
2014-10-19
Minimum magnitude displayed is 2.5.

Coastal Water Temperatures

Place Temperature
No Stations Reporting

Nearby Weather Stations